RJB weather

Rajbiraj Airport
Rajbiraj, Sagarmatha, Nepal

Public forecast

Using degrees Celsius for public forecast. Weather courtesy of forecast.io.

Closest aviation weather report (METAR) to Rajbiraj Airport

Closest report is Bagdogra Airport, 86.2 nm (159.7 km) E. Retrieved 2020/08/04 01:30 UTC (1 hour ago):

VEBD 040130Z VRB02KT 6000 FEW025 SCT250 30/26 Q0994 NOSIG

Closest aviation forecast (TAF) to Rajbiraj Airport

Forecast is more than 12 hours old.

Closest forecast is Bagdogra Airport, 86.2 nm (159.7 km) E. Retrieved 2020/08/03 12:30 UTC (14 hours ago):

TAF VEBD 030930Z 0312/0324 12005KT 6000 SCT025 SCT090 TEMPO 0312/0314 2000 TSRA SCT020 FEW030CB SCT090